sensor_id;sensor_type;location;lat;lon;timestamp;P1;durP1;ratioP1;P2;durP2;ratioP2
54871;SDS011;43914;57.680;11.982;2023-09-18T00:00:43;8.50;;;3.90;;
54871;SDS011;43914;57.680;11.982;2023-09-18T00:03:15;8.10;;;4.20;;
54871;SDS011;43914;57.680;11.982;2023-09-18T00:05:46;7.60;;;3.90;;
54871;SDS011;43914;57.680;11.982;2023-09-18T00:08:13;9.20;;;4.00;;
54871;SDS011;43914;57.680;11.982;2023-09-18T00:10:40;7.30;;;3.70;;
54871;SDS011;43914;57.680;11.982;2023-09-18T00:13:07;8.40;;;3.30;;
54871;SDS011;43914;57.680;11.982;2023-09-18T00:15:34;7.80;;;3.70;;
54871;SDS011;43914;57.680;11.982;2023-09-18T00:17:59;9.80;;;3.50;;
54871;SDS011;43914;57.680;11.982;2023-09-18T00:20:25;8.30;;;3.50;;
54871;SDS011;43914;57.680;11.982;2023-09-18T00:22:53;7.70;;;3.50;;
54871;SDS011;43914;57.680;11.982;2023-09-18T00:25:19;13.70;;;3.40;;
54871;SDS011;43914;57.680;11.982;2023-09-18T00:27:45;8.20;;;4.30;;
54871;SDS011;43914;57.680;11.982;2023-09-18T00:30:11;7.50;;;3.30;;
54871;SDS011;43914;57.680;11.982;2023-09-18T00:32:36;8.00;;;3.50;;
54871;SDS011;43914;57.680;11.982;2023-09-18T00:35:02;8.10;;;3.30;;
54871;SDS011;43914;57.680;11.982;2023-09-18T00:37:28;8.40;;;3.60;;
54871;SDS011;43914;57.680;11.982;2023-09-18T00:39:54;7.60;;;4.10;;
54871;SDS011;43914;57.680;11.982;2023-09-18T00:42:19;7.30;;;3.60;;
54871;SDS011;43914;57.680;11.982;2023-09-18T00:44:47;7.60;;;3.70;;
54871;SDS011;43914;57.680;11.982;2023-09-18T00:47:15;7.80;;;3.30;;
54871;SDS011;43914;57.680;11.982;2023-09-18T00:49:43;8.00;;;3.50;;
54871;SDS011;43914;57.680;11.982;2023-09-18T00:52:11;8.10;;;3.80;;
54871;SDS011;43914;57.680;11.982;2023-09-18T00:54:37;6.40;;;3.00;;
54871;SDS011;43914;57.680;11.982;2023-09-18T00:57:05;8.00;;;3.70;;
54871;SDS011;43914;57.680;11.982;2023-09-18T00:59:30;8.80;;;3.20;;
54871;SDS011;43914;57.680;11.982;2023-09-18T01:01:58;8.60;;;3.40;;
54871;SDS011;43914;57.680;11.982;2023-09-18T01:04:24;8.40;;;3.20;;
54871;SDS011;43914;57.680;11.982;2023-09-18T01:06:51;8.10;;;3.30;;
54871;SDS011;43914;57.680;11.982;2023-09-18T01:09:18;7.10;;;3.10;;
54871;SDS011;43914;57.680;11.982;2023-09-18T01:12:05;8.30;;;3.30;;
54871;SDS011;43914;57.680;11.982;2023-09-18T01:14:33;7.10;;;2.80;;
54871;SDS011;43914;57.680;11.982;2023-09-18T01:17:10;6.90;;;3.20;;
54871;SDS011;43914;57.680;11.982;2023-09-18T01:22:15;7.50;;;3.00;;
54871;SDS011;43914;57.680;11.982;2023-09-18T01:24:43;6.80;;;2.80;;
54871;SDS011;43914;57.680;11.982;2023-09-18T01:27:11;6.90;;;2.80;;
54871;SDS011;43914;57.680;11.982;2023-09-18T01:29:38;8.60;;;2.90;;
54871;SDS011;43914;57.680;11.982;2023-09-18T01:32:04;8.20;;;3.10;;
54871;SDS011;43914;57.680;11.982;2023-09-18T01:34:33;6.90;;;3.00;;
54871;SDS011;43914;57.680;11.982;2023-09-18T01:37:02;7.70;;;3.30;;
54871;SDS011;43914;57.680;11.982;2023-09-18T01:39:30;7.30;;;2.80;;
54871;SDS011;43914;57.680;11.982;2023-09-18T01:42:01;7.30;;;2.80;;
54871;SDS011;43914;57.680;11.982;2023-09-18T01:44:29;7.60;;;3.00;;
54871;SDS011;43914;57.680;11.982;2023-09-18T01:46:58;9.80;;;3.00;;
54871;SDS011;43914;57.680;11.982;2023-09-18T01:49:29;7.00;;;2.70;;
54871;SDS011;43914;57.680;11.982;2023-09-18T01:51:57;6.90;;;2.90;;
54871;SDS011;43914;57.680;11.982;2023-09-18T01:54:23;7.00;;;2.80;;
54871;SDS011;43914;57.680;11.982;2023-09-18T01:56:49;6.80;;;3.10;;
54871;SDS011;43914;57.680;11.982;2023-09-18T01:59:15;7.40;;;2.70;;
54871;SDS011;43914;57.680;11.982;2023-09-18T02:01:41;9.60;;;2.70;;
54871;SDS011;43914;57.680;11.982;2023-09-18T02:04:06;7.10;;;2.90;;
54871;SDS011;43914;57.680;11.982;2023-09-18T02:06:32;9.30;;;3.10;;
54871;SDS011;43914;57.680;11.982;2023-09-18T02:08:57;7.00;;;2.70;;
54871;SDS011;43914;57.680;11.982;2023-09-18T02:11:23;8.00;;;2.90;;
54871;SDS011;43914;57.680;11.982;2023-09-18T02:13:50;7.70;;;2.80;;
54871;SDS011;43914;57.680;11.982;2023-09-18T02:16:15;8.70;;;3.00;;
54871;SDS011;43914;57.680;11.982;2023-09-18T02:18:41;8.20;;;2.80;;
54871;SDS011;43914;57.680;11.982;2023-09-18T02:21:08;6.80;;;2.80;;
54871;SDS011;43914;57.680;11.982;2023-09-18T02:23:34;6.70;;;2.70;;
54871;SDS011;43914;57.680;11.982;2023-09-18T02:25:59;7.40;;;3.00;;
54871;SDS011;43914;57.680;11.982;2023-09-18T02:28:25;6.70;;;2.60;;
54871;SDS011;43914;57.680;11.982;2023-09-18T02:30:51;9.10;;;2.80;;
54871;SDS011;43914;57.680;11.982;2023-09-18T02:33:18;6.70;;;2.60;;
54871;SDS011;43914;57.680;11.982;2023-09-18T02:35:43;9.80;;;3.20;;
54871;SDS011;43914;57.680;11.982;2023-09-18T02:38:10;6.60;;;2.80;;
54871;SDS011;43914;57.680;11.982;2023-09-18T02:40:35;7.30;;;2.80;;
54871;SDS011;43914;57.680;11.982;2023-09-18T02:43:00;8.40;;;3.00;;
54871;SDS011;43914;57.680;11.982;2023-09-18T02:45:27;7.00;;;2.80;;
54871;SDS011;43914;57.680;11.982;2023-09-18T02:47:53;7.30;;;2.90;;
54871;SDS011;43914;57.680;11.982;2023-09-18T02:50:18;7.60;;;2.90;;
54871;SDS011;43914;57.680;11.982;2023-09-18T02:52:44;7.30;;;2.60;;
54871;SDS011;43914;57.680;11.982;2023-09-18T02:55:09;6.50;;;2.80;;
54871;SDS011;43914;57.680;11.982;2023-09-18T02:57:35;7.60;;;2.90;;
54871;SDS011;43914;57.680;11.982;2023-09-18T03:00:01;8.20;;;3.00;;
54871;SDS011;43914;57.680;11.982;2023-09-18T03:02:28;6.40;;;2.50;;
54871;SDS011;43914;57.680;11.982;2023-09-18T03:04:54;6.70;;;2.80;;
54871;SDS011;43914;57.680;11.982;2023-09-18T03:07:19;7.30;;;2.90;;
54871;SDS011;43914;57.680;11.982;2023-09-18T03:09:45;7.40;;;2.80;;
54871;SDS011;43914;57.680;11.982;2023-09-18T03:12:10;8.20;;;2.60;;
54871;SDS011;43914;57.680;11.982;2023-09-18T03:14:36;7.40;;;2.70;;
54871;SDS011;43914;57.680;11.982;2023-09-18T03:17:01;7.40;;;3.00;;
54871;SDS011;43914;57.680;11.982;2023-09-18T03:19:27;7.30;;;2.80;;
54871;SDS011;43914;57.680;11.982;2023-09-18T03:21:52;6.90;;;3.10;;
54871;SDS011;43914;57.680;11.982;2023-09-18T03:24:18;10.60;;;3.30;;
54871;SDS011;43914;57.680;11.982;2023-09-18T03:26:44;7.50;;;2.60;;
54871;SDS011;43914;57.680;11.982;2023-09-18T03:29:10;8.30;;;2.50;;
54871;SDS011;43914;57.680;11.982;2023-09-18T03:31:35;9.20;;;2.90;;
54871;SDS011;43914;57.680;11.982;2023-09-18T03:34:01;5.90;;;2.50;;
54871;SDS011;43914;57.680;11.982;2023-09-18T03:36:26;9.20;;;2.90;;
54871;SDS011;43914;57.680;11.982;2023-09-18T03:38:52;7.20;;;2.70;;
54871;SDS011;43914;57.680;11.982;2023-09-18T03:41:17;7.70;;;2.80;;
54871;SDS011;43914;57.680;11.982;2023-09-18T03:43:43;7.40;;;2.70;;
54871;SDS011;43914;57.680;11.982;2023-09-18T03:46:08;8.20;;;3.00;;
54871;SDS011;43914;57.680;11.982;2023-09-18T03:48:34;7.10;;;2.90;;
54871;SDS011;43914;57.680;11.982;2023-09-18T03:51:06;6.60;;;2.60;;
54871;SDS011;43914;57.680;11.982;2023-09-18T03:53:33;8.60;;;2.60;;
54871;SDS011;43914;57.680;11.982;2023-09-18T03:55:59;8.10;;;2.70;;
54871;SDS011;43914;57.680;11.982;2023-09-18T03:58:25;8.00;;;2.70;;
54871;SDS011;43914;57.680;11.982;2023-09-18T04:00:51;11.40;;;2.90;;
54871;SDS011;43914;57.680;11.982;2023-09-18T04:03:21;7.80;;;2.60;;
54871;SDS011;43914;57.680;11.982;2023-09-18T04:05:47;6.40;;;2.50;;
54871;SDS011;43914;57.680;11.982;2023-09-18T04:08:12;7.70;;;2.40;;
54871;SDS011;43914;57.680;11.982;2023-09-18T04:10:38;7.50;;;3.00;;
54871;SDS011;43914;57.680;11.982;2023-09-18T04:13:04;9.50;;;2.50;;
54871;SDS011;43914;57.680;11.982;2023-09-18T04:15:30;8.40;;;2.70;;
54871;SDS011;43914;57.680;11.982;2023-09-18T04:17:56;8.30;;;2.90;;
54871;SDS011;43914;57.680;11.982;2023-09-18T04:20:22;7.20;;;2.50;;
54871;SDS011;43914;57.680;11.982;2023-09-18T04:23:16;7.20;;;2.50;;
54871;SDS011;43914;57.680;11.982;2023-09-18T04:25:42;9.40;;;2.60;;
54871;SDS011;43914;57.680;11.982;2023-09-18T04:28:08;7.80;;;2.40;;
54871;SDS011;43914;57.680;11.982;2023-09-18T04:30:33;8.90;;;2.90;;
54871;SDS011;43914;57.680;11.982;2023-09-18T04:32:59;6.40;;;2.20;;
54871;SDS011;43914;57.680;11.982;2023-09-18T04:35:24;8.50;;;2.50;;
54871;SDS011;43914;57.680;11.982;2023-09-18T04:37:50;8.10;;;2.60;;
54871;SDS011;43914;57.680;11.982;2023-09-18T04:40:20;9.40;;;2.90;;
54871;SDS011;43914;57.680;11.982;2023-09-18T04:42:46;6.80;;;2.60;;
54871;SDS011;43914;57.680;11.982;2023-09-18T04:45:11;6.50;;;2.70;;
54871;SDS011;43914;57.680;11.982;2023-09-18T04:47:37;8.20;;;2.50;;
54871;SDS011;43914;57.680;11.982;2023-09-18T04:50:02;11.60;;;2.90;;
54871;SDS011;43914;57.680;11.982;2023-09-18T04:52:31;8.80;;;2.40;;
54871;SDS011;43914;57.680;11.982;2023-09-18T04:54:57;6.90;;;2.20;;
54871;SDS011;43914;57.680;11.982;2023-09-18T04:57:23;7.50;;;2.60;;
54871;SDS011;43914;57.680;11.982;2023-09-18T04:59:49;7.30;;;2.40;;
54871;SDS011;43914;57.680;11.982;2023-09-18T05:02:15;6.80;;;2.50;;
54871;SDS011;43914;57.680;11.982;2023-09-18T05:04:41;8.20;;;2.80;;
54871;SDS011;43914;57.680;11.982;2023-09-18T05:07:10;7.70;;;3.30;;
54871;SDS011;43914;57.680;11.982;2023-09-18T05:09:35;7.30;;;2.50;;
54871;SDS011;43914;57.680;11.982;2023-09-18T05:12:01;9.10;;;2.60;;
54871;SDS011;43914;57.680;11.982;2023-09-18T05:14:29;8.70;;;2.70;;
54871;SDS011;43914;57.680;11.982;2023-09-18T05:16:55;7.10;;;2.30;;
54871;SDS011;43914;57.680;11.982;2023-09-18T05:19:20;8.00;;;2.80;;
54871;SDS011;43914;57.680;11.982;2023-09-18T05:21:46;6.90;;;2.50;;
54871;SDS011;43914;57.680;11.982;2023-09-18T05:24:13;8.40;;;2.70;;
54871;SDS011;43914;57.680;11.982;2023-09-18T05:26:38;8.60;;;2.40;;
54871;SDS011;43914;57.680;11.982;2023-09-18T05:29:04;7.00;;;2.40;;
54871;SDS011;43914;57.680;11.982;2023-09-18T05:31:29;7.10;;;2.40;;
54871;SDS011;43914;57.680;11.982;2023-09-18T05:33:55;6.50;;;2.40;;
54871;SDS011;43914;57.680;11.982;2023-09-18T05:36:21;7.80;;;2.50;;
54871;SDS011;43914;57.680;11.982;2023-09-18T05:38:46;7.10;;;2.60;;
54871;SDS011;43914;57.680;11.982;2023-09-18T05:41:12;8.00;;;2.30;;
54871;SDS011;43914;57.680;11.982;2023-09-18T05:43:37;7.20;;;2.50;;
54871;SDS011;43914;57.680;11.982;2023-09-18T05:46:05;7.00;;;2.30;;
54871;SDS011;43914;57.680;11.982;2023-09-18T05:48:31;8.10;;;2.60;;
54871;SDS011;43914;57.680;11.982;2023-09-18T05:50:56;5.90;;;2.10;;
54871;SDS011;43914;57.680;11.982;2023-09-18T05:53:22;8.40;;;2.30;;
54871;SDS011;43914;57.680;11.982;2023-09-18T05:55:48;6.60;;;2.20;;
54871;SDS011;43914;57.680;11.982;2023-09-18T05:58:13;8.40;;;2.40;;
54871;SDS011;43914;57.680;11.982;2023-09-18T06:00:39;7.10;;;2.70;;
54871;SDS011;43914;57.680;11.982;2023-09-18T06:03:05;6.00;;;2.10;;
54871;SDS011;43914;57.680;11.982;2023-09-18T06:05:31;6.40;;;2.10;;
54871;SDS011;43914;57.680;11.982;2023-09-18T06:07:59;7.20;;;2.30;;
54871;SDS011;43914;57.680;11.982;2023-09-18T06:10:25;6.50;;;2.40;;
54871;SDS011;43914;57.680;11.982;2023-09-18T06:12:51;6.80;;;2.50;;
54871;SDS011;43914;57.680;11.982;2023-09-18T06:15:16;6.40;;;2.40;;
54871;SDS011;43914;57.680;11.982;2023-09-18T06:17:44;7.70;;;2.40;;
54871;SDS011;43914;57.680;11.982;2023-09-18T06:20:10;7.10;;;2.40;;
54871;SDS011;43914;57.680;11.982;2023-09-18T06:22:38;6.40;;;2.30;;
54871;SDS011;43914;57.680;11.982;2023-09-18T06:25:05;7.00;;;2.20;;
54871;SDS011;43914;57.680;11.982;2023-09-18T06:27:33;7.00;;;2.00;;
54871;SDS011;43914;57.680;11.982;2023-09-18T06:30:01;7.00;;;2.30;;
54871;SDS011;43914;57.680;11.982;2023-09-18T06:32:27;6.80;;;2.10;;
54871;SDS011;43914;57.680;11.982;2023-09-18T06:34:53;8.30;;;2.20;;
54871;SDS011;43914;57.680;11.982;2023-09-18T06:37:18;8.00;;;2.40;;
54871;SDS011;43914;57.680;11.982;2023-09-18T06:39:45;7.70;;;2.20;;
54871;SDS011;43914;57.680;11.982;2023-09-18T06:42:11;7.20;;;2.50;;
54871;SDS011;43914;57.680;11.982;2023-09-18T06:44:37;7.10;;;2.30;;
54871;SDS011;43914;57.680;11.982;2023-09-18T06:47:02;7.10;;;2.20;;
54871;SDS011;43914;57.680;11.982;2023-09-18T06:49:28;5.90;;;2.10;;
54871;SDS011;43914;57.680;11.982;2023-09-18T06:51:54;6.30;;;2.20;;
54871;SDS011;43914;57.680;11.982;2023-09-18T06:54:19;6.40;;;2.20;;
54871;SDS011;43914;57.680;11.982;2023-09-18T06:56:45;7.80;;;2.20;;
54871;SDS011;43914;57.680;11.982;2023-09-18T06:59:10;7.30;;;2.10;;
54871;SDS011;43914;57.680;11.982;2023-09-18T07:01:37;6.20;;;1.90;;
54871;SDS011;43914;57.680;11.982;2023-09-18T07:04:03;8.50;;;2.30;;
54871;SDS011;43914;57.680;11.982;2023-09-18T07:06:29;6.70;;;2.30;;
54871;SDS011;43914;57.680;11.982;2023-09-18T07:08:55;6.80;;;1.90;;
54871;SDS011;43914;57.680;11.982;2023-09-18T07:11:21;8.60;;;2.10;;
54871;SDS011;43914;57.680;11.982;2023-09-18T07:13:48;8.10;;;2.20;;
54871;SDS011;43914;57.680;11.982;2023-09-18T07:16:14;6.40;;;2.20;;
54871;SDS011;43914;57.680;11.982;2023-09-18T07:18:40;8.20;;;2.10;;
54871;SDS011;43914;57.680;11.982;2023-09-18T07:21:06;6.70;;;2.10;;
54871;SDS011;43914;57.680;11.982;2023-09-18T07:23:31;8.00;;;2.20;;
54871;SDS011;43914;57.680;11.982;2023-09-18T07:25:56;7.70;;;2.30;;
54871;SDS011;43914;57.680;11.982;2023-09-18T07:28:25;8.70;;;2.00;;
54871;SDS011;43914;57.680;11.982;2023-09-18T07:30:51;8.60;;;2.20;;
54871;SDS011;43914;57.680;11.982;2023-09-18T07:33:17;6.70;;;2.30;;
54871;SDS011;43914;57.680;11.982;2023-09-18T07:35:48;6.20;;;2.00;;
54871;SDS011;43914;57.680;11.982;2023-09-18T07:38:17;8.00;;;2.10;;
54871;SDS011;43914;57.680;11.982;2023-09-18T07:40:44;8.20;;;2.10;;
54871;SDS011;43914;57.680;11.982;2023-09-18T07:43:12;6.50;;;2.10;;
54871;SDS011;43914;57.680;11.982;2023-09-18T07:45:38;7.00;;;2.30;;
54871;SDS011;43914;57.680;11.982;2023-09-18T07:48:05;8.40;;;2.00;;
54871;SDS011;43914;57.680;11.982;2023-09-18T07:50:32;7.80;;;2.30;;
54871;SDS011;43914;57.680;11.982;2023-09-18T07:52:58;7.10;;;2.00;;
54871;SDS011;43914;57.680;11.982;2023-09-18T07:55:24;8.20;;;2.00;;
54871;SDS011;43914;57.680;11.982;2023-09-18T07:57:51;6.40;;;2.00;;
54871;SDS011;43914;57.680;11.982;2023-09-18T08:00:16;7.50;;;2.00;;
54871;SDS011;43914;57.680;11.982;2023-09-18T08:02:43;6.40;;;1.80;;
54871;SDS011;43914;57.680;11.982;2023-09-18T08:05:10;7.20;;;2.50;;
54871;SDS011;43914;57.680;11.982;2023-09-18T08:07:36;6.30;;;2.10;;
54871;SDS011;43914;57.680;11.982;2023-09-18T08:10:03;5.90;;;1.90;;
54871;SDS011;43914;57.680;11.982;2023-09-18T08:12:31;6.10;;;2.10;;
54871;SDS011;43914;57.680;11.982;2023-09-18T08:14:58;7.20;;;2.10;;
54871;SDS011;43914;57.680;11.982;2023-09-18T08:17:24;6.80;;;1.90;;
54871;SDS011;43914;57.680;11.982;2023-09-18T08:19:51;6.50;;;2.10;;
54871;SDS011;43914;57.680;11.982;2023-09-18T08:22:18;6.80;;;1.90;;
54871;SDS011;43914;57.680;11.982;2023-09-18T08:24:46;6.70;;;2.20;;
54871;SDS011;43914;57.680;11.982;2023-09-18T08:27:16;5.80;;;1.80;;
54871;SDS011;43914;57.680;11.982;2023-09-18T08:29:47;7.50;;;2.00;;
54871;SDS011;43914;57.680;11.982;2023-09-18T08:32:13;6.80;;;2.10;;
54871;SDS011;43914;57.680;11.982;2023-09-18T08:34:38;6.30;;;2.20;;
54871;SDS011;43914;57.680;11.982;2023-09-18T08:37:04;7.70;;;2.50;;
54871;SDS011;43914;57.680;11.982;2023-09-18T08:39:30;6.80;;;2.20;;
54871;SDS011;43914;57.680;11.982;2023-09-18T08:42:04;6.90;;;1.80;;
54871;SDS011;43914;57.680;11.982;2023-09-18T08:44:32;6.90;;;2.30;;
54871;SDS011;43914;57.680;11.982;2023-09-18T08:47:02;6.50;;;2.00;;
54871;SDS011;43914;57.680;11.982;2023-09-18T08:49:28;5.90;;;1.90;;
54871;SDS011;43914;57.680;11.982;2023-09-18T08:51:55;7.70;;;2.50;;
54871;SDS011;43914;57.680;11.982;2023-09-18T08:54:22;7.40;;;2.00;;
54871;SDS011;43914;57.680;11.982;2023-09-18T08:56:49;7.10;;;2.10;;
54871;SDS011;43914;57.680;11.982;2023-09-18T08:59:16;6.70;;;2.30;;
54871;SDS011;43914;57.680;11.982;2023-09-18T09:01:42;6.30;;;2.30;;
54871;SDS011;43914;57.680;11.982;2023-09-18T09:04:07;6.30;;;2.20;;
54871;SDS011;43914;57.680;11.982;2023-09-18T09:06:33;7.70;;;2.50;;
54871;SDS011;43914;57.680;11.982;2023-09-18T09:09:01;6.20;;;2.10;;
54871;SDS011;43914;57.680;11.982;2023-09-18T09:11:27;6.60;;;2.40;;
54871;SDS011;43914;57.680;11.982;2023-09-18T09:16:53;7.00;;;2.60;;
54871;SDS011;43914;57.680;11.982;2023-09-18T09:19:27;8.00;;;2.60;;
54871;SDS011;43914;57.680;11.982;2023-09-18T09:21:58;9.20;;;2.80;;
54871;SDS011;43914;57.680;11.982;2023-09-18T09:24:41;7.30;;;2.80;;
54871;SDS011;43914;57.680;11.982;2023-09-18T09:27:08;7.60;;;3.20;;
54871;SDS011;43914;57.680;11.982;2023-09-18T09:29:36;10.10;;;3.20;;
54871;SDS011;43914;57.680;11.982;2023-09-18T09:32:12;9.60;;;3.10;;
54871;SDS011;43914;57.680;11.982;2023-09-18T09:34:40;7.70;;;3.10;;
54871;SDS011;43914;57.680;11.982;2023-09-18T09:37:06;9.00;;;2.80;;
54871;SDS011;43914;57.680;11.982;2023-09-18T09:39:32;7.80;;;3.20;;
54871;SDS011;43914;57.680;11.982;2023-09-18T09:42:02;13.50;;;3.50;;
54871;SDS011;43914;57.680;11.982;2023-09-18T09:44:32;9.50;;;3.60;;
54871;SDS011;43914;57.680;11.982;2023-09-18T09:46:59;7.60;;;3.40;;
54871;SDS011;43914;57.680;11.982;2023-09-18T09:49:25;8.00;;;3.40;;
54871;SDS011;43914;57.680;11.982;2023-09-18T09:51:53;9.30;;;3.40;;
54871;SDS011;43914;57.680;11.982;2023-09-18T09:54:52;8.80;;;3.50;;
54871;SDS011;43914;57.680;11.982;2023-09-18T09:57:10;8.60;;;3.60;;
54871;SDS011;43914;57.680;11.982;2023-09-18T09:59:36;7.90;;;3.60;;
54871;SDS011;43914;57.680;11.982;2023-09-18T10:02:01;8.70;;;3.70;;
54871;SDS011;43914;57.680;11.982;2023-09-18T10:04:28;7.00;;;3.20;;
54871;SDS011;43914;57.680;11.982;2023-09-18T10:07:05;9.10;;;3.80;;
54871;SDS011;43914;57.680;11.982;2023-09-18T10:09:33;7.90;;;3.70;;
54871;SDS011;43914;57.680;11.982;2023-09-18T10:12:01;8.90;;;3.60;;
54871;SDS011;43914;57.680;11.982;2023-09-18T10:14:34;8.00;;;3.60;;
54871;SDS011;43914;57.680;11.982;2023-09-18T10:17:04;7.30;;;3.40;;
54871;SDS011;43914;57.680;11.982;2023-09-18T10:22:48;8.00;;;3.80;;
54871;SDS011;43914;57.680;11.982;2023-09-18T10:25:19;8.30;;;3.50;;
54871;SDS011;43914;57.680;11.982;2023-09-18T10:27:49;11.60;;;3.80;;
54871;SDS011;43914;57.680;11.982;2023-09-18T10:30:20;8.30;;;3.70;;
54871;SDS011;43914;57.680;11.982;2023-09-18T10:32:49;10.00;;;3.90;;
54871;SDS011;43914;57.680;11.982;2023-09-18T10:35:15;8.80;;;4.10;;
54871;SDS011;43914;57.680;11.982;2023-09-18T10:37:42;9.50;;;4.00;;
54871;SDS011;43914;57.680;11.982;2023-09-18T10:40:09;8.90;;;3.50;;
54871;SDS011;43914;57.680;11.982;2023-09-18T10:42:35;9.50;;;3.90;;
54871;SDS011;43914;57.680;11.982;2023-09-18T10:45:03;9.60;;;4.10;;
54871;SDS011;43914;57.680;11.982;2023-09-18T10:47:30;8.70;;;3.80;;
54871;SDS011;43914;57.680;11.982;2023-09-18T10:49:57;8.20;;;3.60;;
54871;SDS011;43914;57.680;11.982;2023-09-18T10:52:23;9.70;;;4.10;;
54871;SDS011;43914;57.680;11.982;2023-09-18T10:54:48;8.80;;;4.00;;
54871;SDS011;43914;57.680;11.982;2023-09-18T10:57:14;8.90;;;4.30;;
54871;SDS011;43914;57.680;11.982;2023-09-18T10:59:43;9.90;;;3.80;;
54871;SDS011;43914;57.680;11.982;2023-09-18T11:02:13;11.20;;;4.10;;
54871;SDS011;43914;57.680;11.982;2023-09-18T11:04:41;9.70;;;3.70;;
54871;SDS011;43914;57.680;11.982;2023-09-18T11:07:07;8.20;;;4.10;;
54871;SDS011;43914;57.680;11.982;2023-09-18T11:09:41;9.80;;;4.00;;
54871;SDS011;43914;57.680;11.982;2023-09-18T11:12:09;9.10;;;3.80;;
54871;SDS011;43914;57.680;11.982;2023-09-18T11:14:43;9.90;;;4.20;;
54871;SDS011;43914;57.680;11.982;2023-09-18T11:20:41;9.80;;;4.30;;
54871;SDS011;43914;57.680;11.982;2023-09-18T11:22:59;9.60;;;3.70;;
54871;SDS011;43914;57.680;11.982;2023-09-18T11:28:24;9.10;;;3.80;;
54871;SDS011;43914;57.680;11.982;2023-09-18T11:30:54;9.70;;;4.00;;
54871;SDS011;43914;57.680;11.982;2023-09-18T11:33:33;8.20;;;4.00;;
54871;SDS011;43914;57.680;11.982;2023-09-18T11:36:06;9.10;;;4.30;;
54871;SDS011;43914;57.680;11.982;2023-09-18T11:38:35;8.10;;;3.90;;
54871;SDS011;43914;57.680;11.982;2023-09-18T11:41:24;9.20;;;4.40;;
54871;SDS011;43914;57.680;11.982;2023-09-18T11:43:52;9.40;;;4.80;;
54871;SDS011;43914;57.680;11.982;2023-09-18T11:46:45;10.00;;;4.20;;
54871;SDS011;43914;57.680;11.982;2023-09-18T11:49:22;9.50;;;4.40;;
54871;SDS011;43914;57.680;11.982;2023-09-18T11:51:53;9.70;;;4.70;;
54871;SDS011;43914;57.680;11.982;2023-09-18T11:54:20;9.10;;;4.40;;
54871;SDS011;43914;57.680;11.982;2023-09-18T11:56:48;9.50;;;4.40;;
54871;SDS011;43914;57.680;11.982;2023-09-18T11:59:14;10.60;;;4.60;;
54871;SDS011;43914;57.680;11.982;2023-09-18T12:01:42;9.80;;;5.00;;
54871;SDS011;43914;57.680;11.982;2023-09-18T12:04:11;9.30;;;4.90;;
54871;SDS011;43914;57.680;11.982;2023-09-18T12:06:40;8.90;;;4.80;;
54871;SDS011;43914;57.680;11.982;2023-09-18T12:09:07;9.30;;;4.60;;
54871;SDS011;43914;57.680;11.982;2023-09-18T12:11:34;9.70;;;4.70;;
54871;SDS011;43914;57.680;11.982;2023-09-18T12:14:00;12.00;;;4.70;;
54871;SDS011;43914;57.680;11.982;2023-09-18T12:16:30;11.00;;;4.70;;
54871;SDS011;43914;57.680;11.982;2023-09-18T12:19:04;10.70;;;5.20;;
54871;SDS011;43914;57.680;11.982;2023-09-18T12:21:31;9.30;;;5.00;;
54871;SDS011;43914;57.680;11.982;2023-09-18T12:23:58;12.30;;;4.90;;
54871;SDS011;43914;57.680;11.982;2023-09-18T12:26:24;10.20;;;5.10;;
54871;SDS011;43914;57.680;11.982;2023-09-18T12:28:51;10.10;;;5.10;;
54871;SDS011;43914;57.680;11.982;2023-09-18T12:31:16;10.50;;;4.90;;
54871;SDS011;43914;57.680;11.982;2023-09-18T12:33:42;12.80;;;6.50;;
54871;SDS011;43914;57.680;11.982;2023-09-18T12:36:09;9.80;;;5.10;;
54871;SDS011;43914;57.680;11.982;2023-09-18T12:38:36;10.20;;;5.40;;
54871;SDS011;43914;57.680;11.982;2023-09-18T12:41:03;11.50;;;5.80;;
54871;SDS011;43914;57.680;11.982;2023-09-18T12:43:40;11.30;;;5.50;;
54871;SDS011;43914;57.680;11.982;2023-09-18T12:46:07;9.80;;;5.80;;
54871;SDS011;43914;57.680;11.982;2023-09-18T12:48:37;9.90;;;5.30;;
54871;SDS011;43914;57.680;11.982;2023-09-18T12:51:10;11.50;;;6.30;;
54871;SDS011;43914;57.680;11.982;2023-09-18T12:53:37;12.20;;;5.60;;
54871;SDS011;43914;57.680;11.982;2023-09-18T12:56:10;11.50;;;6.00;;
54871;SDS011;43914;57.680;11.982;2023-09-18T12:58:42;13.20;;;6.70;;
54871;SDS011;43914;57.680;11.982;2023-09-18T13:01:08;10.60;;;5.80;;
54871;SDS011;43914;57.680;11.982;2023-09-18T13:03:44;12.20;;;6.30;;
54871;SDS011;43914;57.680;11.982;2023-09-18T13:06:17;12.10;;;6.40;;
54871;SDS011;43914;57.680;11.982;2023-09-18T13:08:48;13.80;;;5.80;;
54871;SDS011;43914;57.680;11.982;2023-09-18T13:11:18;13.50;;;6.00;;
54871;SDS011;43914;57.680;11.982;2023-09-18T13:13:43;10.60;;;5.90;;
54871;SDS011;43914;57.680;11.982;2023-09-18T13:16:09;10.50;;;5.70;;
54871;SDS011;43914;57.680;11.982;2023-09-18T13:18:36;11.90;;;6.70;;
54871;SDS011;43914;57.680;11.982;2023-09-18T13:21:12;10.00;;;6.00;;
54871;SDS011;43914;57.680;11.982;2023-09-18T13:23:41;13.80;;;6.20;;
54871;SDS011;43914;57.680;11.982;2023-09-18T13:26:13;11.60;;;6.30;;
54871;SDS011;43914;57.680;11.982;2023-09-18T13:28:38;13.20;;;6.60;;
54871;SDS011;43914;57.680;11.982;2023-09-18T13:31:05;11.90;;;5.80;;
54871;SDS011;43914;57.680;11.982;2023-09-18T13:33:32;12.50;;;7.30;;
54871;SDS011;43914;57.680;11.982;2023-09-18T13:35:59;12.60;;;7.20;;
54871;SDS011;43914;57.680;11.982;2023-09-18T13:38:25;12.20;;;6.20;;
54871;SDS011;43914;57.680;11.982;2023-09-18T13:40:51;10.50;;;6.20;;
54871;SDS011;43914;57.680;11.982;2023-09-18T13:43:20;10.00;;;5.70;;
54871;SDS011;43914;57.680;11.982;2023-09-18T13:45:47;13.20;;;6.20;;
54871;SDS011;43914;57.680;11.982;2023-09-18T13:48:17;12.40;;;6.40;;
54871;SDS011;43914;57.680;11.982;2023-09-18T13:50:43;13.70;;;6.70;;
54871;SDS011;43914;57.680;11.982;2023-09-18T13:53:10;12.60;;;7.30;;
54871;SDS011;43914;57.680;11.982;2023-09-18T13:55:35;10.30;;;5.70;;
54871;SDS011;43914;57.680;11.982;2023-09-18T13:58:01;11.60;;;6.50;;
54871;SDS011;43914;57.680;11.982;2023-09-18T14:00:31;13.50;;;7.50;;
54871;SDS011;43914;57.680;11.982;2023-09-18T14:02:58;11.90;;;6.10;;
54871;SDS011;43914;57.680;11.982;2023-09-18T14:05:24;11.70;;;7.30;;
54871;SDS011;43914;57.680;11.982;2023-09-18T14:07:51;11.90;;;6.50;;
54871;SDS011;43914;57.680;11.982;2023-09-18T14:10:22;13.50;;;7.10;;
54871;SDS011;43914;57.680;11.982;2023-09-18T14:12:49;13.40;;;7.10;;
54871;SDS011;43914;57.680;11.982;2023-09-18T14:15:15;12.20;;;6.60;;
54871;SDS011;43914;57.680;11.982;2023-09-18T14:17:43;10.90;;;7.00;;
54871;SDS011;43914;57.680;11.982;2023-09-18T14:20:09;12.70;;;7.10;;
54871;SDS011;43914;57.680;11.982;2023-09-18T14:22:35;10.20;;;6.30;;
54871;SDS011;43914;57.680;11.982;2023-09-18T14:25:02;12.10;;;6.90;;
54871;SDS011;43914;57.680;11.982;2023-09-18T14:27:31;11.90;;;6.70;;
54871;SDS011;43914;57.680;11.982;2023-09-18T14:29:58;13.00;;;7.20;;
54871;SDS011;43914;57.680;11.982;2023-09-18T14:32:24;10.80;;;6.40;;
54871;SDS011;43914;57.680;11.982;2023-09-18T14:34:51;11.90;;;6.30;;
54871;SDS011;43914;57.680;11.982;2023-09-18T14:37:16;13.00;;;6.40;;
54871;SDS011;43914;57.680;11.982;2023-09-18T14:39:42;11.70;;;6.40;;
54871;SDS011;43914;57.680;11.982;2023-09-18T14:42:08;12.90;;;6.90;;
54871;SDS011;43914;57.680;11.982;2023-09-18T14:44:34;13.20;;;6.50;;
54871;SDS011;43914;57.680;11.982;2023-09-18T14:47:00;11.90;;;7.00;;